Time;durP1;ratioP1;P1;durP2;ratioP2;P2;SDS_P1;SDS_P2;PMS_P1;PMS_P2;Temp;Humidity;BMP_temperature;BMP_pressure;BME280_temperature;BME280_humidity;BME280_pressure;Samples;Min_cycle;Max_cycle;Signal;HPM_P1;HPM_P2
2021/10/08 00:00:52;;;;;;;14.53;6.62;;;;;;;0.39;85.95;94266.20;1824298;77;21010;-85
2021/10/08 00:03:19;;;;;;;15.58;6.25;;;;;;;0.35;86.16;94270.60;1825011;77;21545;-82
2021/10/08 00:05:45;;;;;;;16.55;6.45;;;;;;;0.32;86.69;94265.31;1839324;76;21027;-85
2021/10/08 00:08:11;;;;;;;11.68;5.10;;;;;;;0.36;87.05;94268.16;1854153;76;21022;-83
2021/10/08 00:10:38;;;;;;;10.50;5.53;;;;;;;0.38;86.69;94269.44;1812657;77;21130;-85
2021/10/08 00:13:06;;;;;;;11.93;5.03;;;;;;;0.35;86.70;94267.92;1826098;75;21486;-84
2021/10/08 00:15:32;;;;;;;9.25;4.50;;;;;;;0.35;86.90;94272.72;1824128;77;21049;-85
2021/10/08 00:17:59;;;;;;;9.28;5.40;;;;;;;0.32;86.73;94268.54;1847678;76;20975;-84
2021/10/08 00:20:25;;;;;;;12.55;6.37;;;;;;;0.30;86.86;94268.05;1850039;76;21048;-85
2021/10/08 00:22:52;;;;;;;12.13;5.60;;;;;;;0.29;87.13;94273.16;1848073;77;21751;-84
2021/10/08 00:25:19;;;;;;;9.10;4.92;;;;;;;0.32;87.22;94268.54;1847830;77;21068;-84
2021/10/08 00:27:45;;;;;;;11.57;4.50;;;;;;;0.32;86.99;94272.55;1851666;75;20991;-84
2021/10/08 00:30:12;;;;;;;14.20;6.33;;;;;;;0.28;86.76;94270.26;1823938;77;21026;-84
2021/10/08 00:32:38;;;;;;;11.25;5.55;;;;;;;0.25;87.01;94272.99;1816992;77;20998;-84
2021/10/08 00:35:06;;;;;;;17.23;5.90;;;;;;;0.20;86.75;94275.27;1829634;76;21124;-85
2021/10/08 00:37:32;;;;;;;10.20;5.37;;;;;;;0.13;87.02;94280.27;1815983;77;21050;-85
2021/10/08 00:40:00;;;;;;;13.65;6.08;;;;;;;0.10;86.92;94270.73;1831268;76;21073;-84
2021/10/08 00:42:26;;;;;;;15.70;6.35;;;;;;;0.04;86.83;94270.61;1853409;75;21108;-84
2021/10/08 00:44:54;;;;;;;10.58;5.95;;;;;;;-0.01;87.28;94264.86;1853193;76;21087;-84
2021/10/08 00:47:21;;;;;;;12.30;6.22;;;;;;;-0.03;87.48;94269.19;1811315;77;21774;-84
2021/10/08 00:49:48;;;;;;;14.55;5.67;;;;;;;0.02;87.79;94268.81;1780022;78;21058;-85
2021/10/08 00:52:14;;;;;;;14.98;4.95;;;;;;;0.04;87.80;94267.94;1770795;79;21080;-84
2021/10/08 00:54:41;;;;;;;13.22;5.72;;;;;;;0.06;87.64;94267.09;1771991;80;21049;-85
2021/10/08 00:57:07;;;;;;;5.55;4.40;;;;;;;0.04;87.31;94272.77;1805717;77;20943;-84
2021/10/08 00:59:35;;;;;;;13.38;6.58;;;;;;;0.03;87.04;94277.06;1798489;78;21140;-85
2021/10/08 01:02:02;;;;;;;12.25;5.17;;;;;;;-0.04;86.86;94280.17;1835228;76;21022;-84
2021/10/08 01:04:28;;;;;;;15.08;4.75;;;;;;;-0.11;87.20;94275.28;1827246;78;21059;-87
2021/10/08 01:06:55;;;;;;;10.48;5.03;;;;;;;-0.12;87.76;94283.04;1842232;77;21055;-84
2021/10/08 01:09:21;;;;;;;10.20;5.72;;;;;;;-0.13;87.73;94280.13;1832605;77;21104;-85
2021/10/08 01:11:48;;;;;;;14.65;4.83;;;;;;;-0.16;87.55;94282.63;1790674;77;21111;-84
2021/10/08 01:14:14;;;;;;;13.70;5.15;;;;;;;-0.21;87.57;94279.55;1801602;76;21083;-84
2021/10/08 01:16:43;;;;;;;11.75;5.20;;;;;;;-0.27;87.91;94277.53;1844357;75;21508;-84
2021/10/08 01:19:10;;;;;;;12.18;4.75;;;;;;;-0.30;88.28;94275.49;1830632;77;21076;-84
2021/10/08 01:21:37;;;;;;;12.93;5.10;;;;;;;-0.25;88.16;94278.58;1857565;75;21604;-84
2021/10/08 01:24:05;;;;;;;10.65;5.00;;;;;;;-0.25;87.61;94275.91;1861676;75;21133;-84
2021/10/08 01:26:32;;;;;;;5.42;4.28;;;;;;;-0.32;87.66;94279.55;1848451;75;21128;-83
2021/10/08 01:28:58;;;;;;;10.05;4.90;;;;;;;-0.34;87.81;94279.88;1826314;77;21096;-84
2021/10/08 01:31:25;;;;;;;13.20;4.97;;;;;;;-0.33;88.22;94277.98;1797638;78;21272;-83
2021/10/08 01:33:56;;;;;;;15.23;4.87;;;;;;;-0.31;88.10;94284.58;1849323;76;21776;-83
2021/10/08 01:36:24;;;;;;;13.45;5.15;;;;;;;-0.33;87.92;94289.46;1839907;75;21787;-84
2021/10/08 01:38:52;;;;;;;14.00;5.58;;;;;;;-0.39;87.89;94286.66;1839426;75;21038;-83
2021/10/08 01:41:19;;;;;;;11.05;4.45;;;;;;;-0.43;88.18;94289.70;1785326;77;21114;-85
2021/10/08 01:43:48;;;;;;;14.10;5.15;;;;;;;-0.42;88.61;94285.14;1808229;77;21506;-85
2021/10/08 01:46:15;;;;;;;13.95;6.50;;;;;;;-0.38;88.87;94286.89;1782320;79;21100;-83
2021/10/08 01:48:42;;;;;;;14.47;6.17;;;;;;;-0.37;88.64;94291.17;1813036;76;21724;-83
2021/10/08 01:51:09;;;;;;;11.68;5.30;;;;;;;-0.35;88.50;94287.63;1835694;76;21363;-83
2021/10/08 01:53:38;;;;;;;11.57;5.67;;;;;;;-0.37;88.22;94284.48;1805027;77;21289;-83
2021/10/08 01:56:05;;;;;;;12.65;6.03;;;;;;;-0.41;88.15;94290.20;1826375;76;21024;-83
2021/10/08 01:58:34;;;;;;;11.55;6.92;;;;;;;-0.45;88.27;94293.76;1836886;76;21026;-85
2021/10/08 02:01:00;;;;;;;12.58;5.60;;;;;;;-0.44;88.73;94298.03;1815479;76;21110;-85
2021/10/08 02:03:29;;;;;;;7.87;5.10;;;;;;;-0.41;88.77;94294.76;1804476;76;21080;-86
2021/10/08 02:05:55;;;;;;;13.48;6.05;;;;;;;-0.40;88.74;94301.13;1752028;78;21060;-85
2021/10/08 02:08:23;;;;;;;11.70;5.20;;;;;;;-0.39;88.69;94300.02;1781687;78;21671;-86
2021/10/08 02:10:51;;;;;;;8.65;5.00;;;;;;;-0.39;88.58;94305.91;1780805;78;21172;-85
2021/10/08 02:13:20;;;;;;;7.80;5.00;;;;;;;-0.42;88.03;94299.28;1789006;78;21089;-85
2021/10/08 02:15:47;;;;;;;8.90;4.28;;;;;;;-0.47;87.74;94303.42;1788585;77;21075;-86
2021/10/08 02:18:14;;;;;;;12.50;4.95;;;;;;;-0.53;87.53;94299.28;1800038;78;21042;-85
2021/10/08 02:20:41;;;;;;;12.40;5.65;;;;;;;-0.60;87.33;94298.39;1800999;78;21044;-84
2021/10/08 02:23:09;;;;;;;10.05;5.72;;;;;;;-0.67;87.57;94296.69;1796369;77;21089;-83
2021/10/08 02:25:36;;;;;;;17.32;6.47;;;;;;;-0.69;87.87;94303.41;1776725;78;21541;-84
2021/10/08 02:28:04;;;;;;;12.15;6.83;;;;;;;-0.68;88.36;94306.32;1713251;81;21504;-85
2021/10/08 02:30:33;;;;;;;11.10;6.37;;;;;;;-0.68;88.43;94311.12;1735376;80;21085;-83
2021/10/08 02:32:59;;;;;;;13.08;6.83;;;;;;;-0.68;88.62;94309.78;1799047;77;21628;-84
2021/10/08 02:35:26;;;;;;;13.95;6.97;;;;;;;-0.67;88.84;94309.27;1808359;78;21121;-84
2021/10/08 02:37:53;;;;;;;14.78;7.12;;;;;;;-0.68;88.64;94308.44;1802440;77;21106;-84
2021/10/08 02:40:20;;;;;;;10.38;6.12;;;;;;;-0.68;88.80;94309.00;1788123;79;21533;-84
2021/10/08 02:42:47;;;;;;;13.30;6.10;;;;;;;-0.66;88.77;94311.62;1826164;75;21049;-84
2021/10/08 02:45:15;;;;;;;12.30;5.75;;;;;;;-0.63;88.75;94312.91;1816931;76;21066;-83
2021/10/08 02:47:42;;;;;;;11.28;5.03;;;;;;;-0.66;88.10;94312.95;1773587;80;21244;-83
2021/10/08 02:50:09;;;;;;;11.18;4.80;;;;;;;-0.71;87.94;94310.93;1749874;81;21133;-85
2021/10/08 02:52:35;;;;;;;15.85;5.15;;;;;;;-0.80;87.50;94312.20;1834584;76;21023;-84
2021/10/08 02:55:04;;;;;;;7.17;4.30;;;;;;;-0.90;87.73;94317.77;1808815;78;21537;-84
2021/10/08 02:57:31;;;;;;;16.23;5.25;;;;;;;-0.94;88.19;94316.78;1813222;76;21063;-84
2021/10/08 02:59:57;;;;;;;11.60;4.30;;;;;;;-0.94;88.50;94320.79;1817844;75;20994;-83
2021/10/08 03:02:23;;;;;;;9.20;4.17;;;;;;;-0.93;88.67;94317.84;1789658;78;21863;-83
2021/10/08 03:04:50;;;;;;;7.30;3.92;;;;;;;-0.95;88.55;94316.55;1777435;79;21099;-83
2021/10/08 03:07:17;;;;;;;10.05;3.70;;;;;;;-1.01;88.35;94315.33;1830947;76;21532;-83
2021/10/08 03:09:44;;;;;;;9.65;5.80;;;;;;;-1.10;88.60;94319.78;1803364;77;21055;-84
2021/10/08 03:12:10;;;;;;;8.58;4.30;;;;;;;-1.16;89.05;94320.21;1778866;77;21054;-84
2021/10/08 03:14:39;;;;;;;8.98;4.45;;;;;;;-1.26;89.29;94321.20;1798853;77;21128;-83
2021/10/08 03:17:05;;;;;;;8.80;4.58;;;;;;;-1.31;89.68;94330.11;1856113;75;20994;-84
2021/10/08 03:19:32;;;;;;;9.25;5.30;;;;;;;-1.33;90.03;94325.59;1858374;76;21017;-83
2021/10/08 03:21:58;;;;;;;9.43;4.40;;;;;;;-1.31;90.21;94330.66;1828506;76;21014;-84
2021/10/08 03:24:25;;;;;;;7.08;4.42;;;;;;;-1.27;90.52;94332.97;1822585;77;21093;-86
2021/10/08 03:26:51;;;;;;;6.15;3.55;;;;;;;-1.22;90.65;94333.64;1825440;77;21156;-83
2021/10/08 03:29:18;;;;;;;10.93;4.67;;;;;;;-1.16;90.61;94334.34;1827829;76;21508;-83
2021/10/08 03:31:44;;;;;;;9.40;6.35;;;;;;;-1.13;90.40;94336.94;1782742;77;21116;-84
2021/10/08 03:34:10;;;;;;;12.43;6.03;;;;;;;-1.16;89.91;94331.67;1845453;75;21033;-83
2021/10/08 03:39:12;;;;;;;10.93;4.60;;;;;;;-1.17;90.33;94328.73;1846955;75;21103;-84
2021/10/08 03:41:39;;;;;;;8.90;4.62;;;;;;;-1.19;89.84;94331.48;1807571;78;21490;-83
2021/10/08 03:44:06;;;;;;;13.35;4.37;;;;;;;-1.23;89.44;94341.41;1822003;78;20993;-83
2021/10/08 03:46:37;;;;;;;8.00;4.47;;;;;;;-1.29;89.29;94343.92;1847376;76;20994;-83
2021/10/08 03:51:37;;;;;;;8.13;5.15;;;;;;;-1.26;89.91;94344.67;1852006;75;21046;-84
2021/10/08 03:54:03;;;;;;;12.10;5.22;;;;;;;-1.24;89.88;94345.17;1852969;75;21009;-83
2021/10/08 03:56:31;;;;;;;15.68;5.53;;;;;;;-1.22;89.96;94344.32;1855562;75;21033;-84
2021/10/08 03:58:58;;;;;;;14.05;6.00;;;;;;;-1.14;89.97;94346.05;1819993;77;21037;-82
2021/10/08 04:01:25;;;;;;;12.98;5.58;;;;;;;-1.08;90.04;94346.98;1843898;76;21018;-82
2021/10/08 04:03:52;;;;;;;11.38;5.28;;;;;;;-1.05;89.91;94337.59;1839018;76;20989;-81
2021/10/08 04:06:19;;;;;;;10.20;6.08;;;;;;;-0.99;90.00;94345.72;1734344;80;20969;-82
2021/10/08 04:08:45;;;;;;;11.90;5.15;;;;;;;-0.96;89.63;94348.34;1781685;79;21719;-82
2021/10/08 04:11:13;;;;;;;14.40;7.00;;;;;;;-0.98;89.09;94351.30;1746644;80;21011;-83
2021/10/08 04:13:39;;;;;;;13.38;5.92;;;;;;;-1.06;88.78;94362.69;1770021;79;21178;-83
2021/10/08 04:16:07;;;;;;;14.80;5.85;;;;;;;-1.08;89.11;94360.87;1791469;77;21140;-86
2021/10/08 04:18:33;;;;;;;8.33;4.65;;;;;;;-1.09;89.04;94357.42;1788041;78;21097;-83
2021/10/08 04:21:01;;;;;;;12.40;5.10;;;;;;;-1.09;88.95;94356.61;1792799;78;21709;-82
2021/10/08 04:23:28;;;;;;;8.75;3.95;;;;;;;-1.11;88.86;94355.58;1791529;78;21034;-82
2021/10/08 04:25:56;;;;;;;8.40;4.67;;;;;;;-1.16;88.66;94365.04;1803109;78;21023;-82
2021/10/08 04:28:22;;;;;;;7.03;4.20;;;;;;;-1.21;88.75;94367.79;1819008;77;21094;-82
2021/10/08 04:30:49;;;;;;;9.65;4.33;;;;;;;-1.23;88.90;94369.44;1830728;78;21749;-83
2021/10/08 04:33:18;;;;;;;5.47;3.30;;;;;;;-1.23;88.89;94364.64;1814094;78;21113;-83
2021/10/08 04:35:47;;;;;;;15.63;5.78;;;;;;;-1.22;88.82;94368.89;1781258;78;21014;-83
2021/10/08 04:38:15;;;;;;;7.40;4.65;;;;;;;-1.30;88.55;94373.59;1781236;78;21634;-82
2021/10/08 04:40:41;;;;;;;12.95;4.15;;;;;;;-1.39;88.83;94368.16;1768746;79;21100;-83
2021/10/08 04:43:08;;;;;;;13.13;4.65;;;;;;;-1.42;88.99;94385.30;1804626;77;21014;-83
2021/10/08 04:45:35;;;;;;;8.08;4.92;;;;;;;-1.42;89.34;94382.09;1807943;77;21806;-86
2021/10/08 04:48:02;;;;;;;9.78;6.10;;;;;;;-1.42;89.33;94386.09;1841130;75;21030;-82
2021/10/08 04:50:30;;;;;;;14.43;6.12;;;;;;;-1.38;89.55;94382.30;1809522;77;21133;-82
2021/10/08 04:52:57;;;;;;;9.15;5.45;;;;;;;-1.34;89.65;94382.73;1830597;76;21564;-82
2021/10/08 04:55:24;;;;;;;11.50;5.65;;;;;;;-1.29;89.71;94389.30;1805308;77;21060;-84
2021/10/08 04:57:50;;;;;;;11.20;5.97;;;;;;;-1.26;89.58;94384.70;1782373;79;21209;-83
2021/10/08 05:00:17;;;;;;;13.08;5.78;;;;;;;-1.22;89.83;94393.70;1779386;78;21044;-82
2021/10/08 05:02:44;;;;;;;9.80;5.22;;;;;;;-1.18;89.63;94395.23;1794332;78;21073;-83
2021/10/08 05:05:10;;;;;;;9.25;5.12;;;;;;;-1.15;89.47;94387.97;1793939;78;21753;-83
2021/10/08 05:07:37;;;;;;;9.85;4.90;;;;;;;-1.14;89.41;94389.53;1756891;79;21083;-83
2021/10/08 05:10:06;;;;;;;13.72;6.33;;;;;;;-1.14;89.26;94392.75;1780680;76;21056;-84
2021/10/08 05:12:32;;;;;;;25.57;13.48;;;;;;;-1.15;89.32;94393.30;1786662;77;21076;-84
2021/10/08 05:15:00;;;;;;;17.90;10.93;;;;;;;-1.14;89.54;94395.42;1754797;79;21063;-84
2021/10/08 05:17:27;;;;;;;15.68;6.80;;;;;;;-1.03;89.95;94394.92;1722482;80;21144;-83
2021/10/08 05:19:54;;;;;;;11.70;7.50;;;;;;;-0.68;90.85;94399.27;1805477;76;21020;-85
2021/10/08 05:22:22;;;;;;;16.07;7.47;;;;;;;-0.16;90.83;94401.04;1775382;77;21062;-84
2021/10/08 05:24:49;;;;;;;13.95;7.20;;;;;;;0.26;89.35;94407.53;1740238;78;20998;-84
2021/10/08 05:27:16;;;;;;;15.38;6.00;;;;;;;0.50;87.79;94405.87;1786387;79;21060;-84
2021/10/08 05:29:44;;;;;;;10.28;6.00;;;;;;;0.81;87.09;94402.62;1797624;77;21436;-84
2021/10/08 05:32:10;;;;;;;12.18;6.22;;;;;;;1.36;87.37;94411.53;1738201;80;21062;-85
2021/10/08 05:34:38;;;;;;;12.27;5.53;;;;;;;2.03;85.46;94412.20;1797930;78;21457;-84
2021/10/08 05:37:05;;;;;;;8.95;5.45;;;;;;;2.67;83.03;94408.20;1777467;77;21141;-84
2021/10/08 05:39:33;;;;;;;11.33;6.67;;;;;;;3.43;79.77;94404.73;1749656;79;21041;-86
2021/10/08 05:42:00;;;;;;;12.10;6.40;;;;;;;3.43;79.77;94404.73;1842865;75;21926;-85
2021/10/08 05:44:27;;;;;;;12.25;7.03;;;;;;;3.86;78.01;94412.50;1776145;77;21074;-86
2021/10/08 05:46:54;;;;;;;17.73;9.15;;;;;;;4.07;75.01;94412.50;1777166;78;21076;-85
2021/10/08 05:49:21;;;;;;;11.45;8.53;;;;;;;4.31;74.00;94413.16;1777728;78;21589;-84
2021/10/08 05:51:47;;;;;;;19.50;8.63;;;;;;;4.80;73.75;94413.30;1745705;80;21562;-85
2021/10/08 05:54:14;;;;;;;21.05;11.80;;;;;;;5.42;71.44;94413.38;1793337;78;21711;-86
2021/10/08 05:56:41;;;;;;;18.73;8.40;;;;;;;5.77;68.89;94417.14;1780242;78;21809;-84
2021/10/08 05:59:08;;;;;;;12.43;6.92;;;;;;;5.93;67.77;94421.30;1767714;79;21050;-85
2021/10/08 06:01:35;;;;;;;7.90;5.67;;;;;;;6.23;66.81;94421.00;1776932;78;21094;-85
2021/10/08 06:04:06;;;;;;;15.98;6.20;;;;;;;6.60;65.07;94412.75;1789525;78;21091;-84
2021/10/08 06:06:32;;;;;;;10.32;5.45;;;;;;;6.66;62.79;94418.92;1796858;79;21705;-85
2021/10/08 06:08:59;;;;;;;10.35;5.70;;;;;;;6.18;63.96;94415.85;1816343;77;21560;-86
2021/10/08 06:11:25;;;;;;;11.33;5.70;;;;;;;5.88;64.12;94420.17;1840991;76;21100;-85
2021/10/08 06:13:52;;;;;;;9.28;5.50;;;;;;;5.52;64.11;94419.64;1787752;78;21003;-86
2021/10/08 06:16:20;;;;;;;12.45;4.75;;;;;;;5.15;64.97;94419.63;1782613;78;21010;-86
2021/10/08 06:18:47;;;;;;;10.38;6.72;;;;;;;4.75;65.96;94422.95;1813737;77;21106;-85
2021/10/08 06:21:14;;;;;;;13.40;6.05;;;;;;;4.41;67.56;94421.96;1813758;78;21592;-85
2021/10/08 06:23:40;;;;;;;13.80;6.47;;;;;;;4.29;68.31;94425.39;1817676;78;21155;-86
2021/10/08 06:26:07;;;;;;;14.28;7.87;;;;;;;4.29;68.60;94421.36;1832617;76;21022;-85
2021/10/08 06:28:34;;;;;;;14.78;7.97;;;;;;;4.36;68.90;94421.58;1836688;76;22189;-84
2021/10/08 06:31:01;;;;;;;14.03;7.33;;;;;;;4.43;70.28;94429.91;1801742;77;21616;-85
2021/10/08 06:33:29;;;;;;;13.60;6.30;;;;;;;4.63;69.33;94426.97;1834603;76;21049;-84
2021/10/08 06:35:56;;;;;;;14.38;6.55;;;;;;;4.66;68.63;94426.84;1838628;77;21100;-84
2021/10/08 06:38:22;;;;;;;14.93;7.60;;;;;;;4.63;68.91;94428.31;1838121;76;21063;-84
2021/10/08 06:40:51;;;;;;;18.00;7.40;;;;;;;4.69;69.34;94422.93;1833513;77;21566;-84
2021/10/08 06:43:17;;;;;;;16.67;7.17;;;;;;;4.84;68.62;94426.89;1844581;75;21174;-84
2021/10/08 06:46:04;;;;;;;15.03;8.08;;;;;;;4.94;67.91;94431.08;1851141;75;21331;-84
2021/10/08 06:48:31;;;;;;;10.43;5.80;;;;;;;4.94;68.64;94429.73;1831858;76;21093;-84
2021/10/08 06:50:58;;;;;;;9.75;6.00;;;;;;;4.92;68.00;94436.00;1785955;78;21070;-83
2021/10/08 06:53:25;;;;;;;9.73;5.95;;;;;;;4.84;68.07;94427.67;1812101;77;21026;-84
2021/10/08 06:55:51;;;;;;;18.40;6.50;;;;;;;4.80;68.20;94425.98;1805327;77;21603;-86
2021/10/08 06:58:20;;;;;;;10.25;6.28;;;;;;;4.77;68.49;94432.82;1773010;77;21043;-86
2021/10/08 07:00:46;;;;;;;27.02;14.35;;;;;;;4.78;68.07;94433.07;1776598;80;21047;-84
2021/10/08 07:03:13;;;;;;;15.70;8.20;;;;;;;4.73;68.15;94431.13;1764859;80;21086;-84
2021/10/08 07:05:42;;;;;;;14.43;6.80;;;;;;;4.58;68.68;94432.55;1716323;81;21758;-85
2021/10/08 07:08:08;;;;;;;10.55;5.97;;;;;;;4.53;69.41;94432.77;1766855;79;21114;-84
2021/10/08 07:10:38;;;;;;;18.57;8.50;;;;;;;4.56;69.76;94432.89;1750736;79;21572;-85
2021/10/08 07:13:05;;;;;;;13.05;7.12;;;;;;;4.69;69.93;94435.62;1715364;81;21711;-84
2021/10/08 07:15:32;;;;;;;20.68;9.00;;;;;;;4.75;69.76;94433.73;1766442;78;21070;-83
2021/10/08 07:17:59;;;;;;;17.52;6.42;;;;;;;4.82;69.67;94428.59;1806573;77;21084;-84
2021/10/08 07:20:27;;;;;;;13.88;5.78;;;;;;;4.93;69.85;94430.30;1784402;78;21522;-85
2021/10/08 07:22:55;;;;;;;27.42;6.90;;;;;;;5.04;69.46;94440.88;1754092;79;21051;-85
2021/10/08 07:25:27;;;;;;;23.22;8.33;;;;;;;5.16;68.86;94437.97;1756172;80;21058;-84
2021/10/08 07:27:54;;;;;;;14.78;5.70;;;;;;;5.30;68.61;94435.17;1782102;76;21577;-85
2021/10/08 07:30:20;;;;;;;12.80;6.37;;;;;;;5.46;67.16;94433.94;1819139;77;21058;-84
2021/10/08 07:32:47;;;;;;;18.48;8.05;;;;;;;5.63;67.21;94440.21;1828413;75;21835;-85
2021/10/08 07:35:14;;;;;;;12.73;6.03;;;;;;;5.83;69.23;94439.31;1801798;75;21045;-85
2021/10/08 07:37:41;;;;;;;10.50;5.58;;;;;;;6.10;67.44;94441.09;1778646;78;21056;-84
2021/10/08 07:40:09;;;;;;;12.65;5.78;;;;;;;6.33;65.50;94436.16;1781381;76;21136;-84
2021/10/08 07:42:36;;;;;;;9.10;5.37;;;;;;;6.67;63.83;94439.98;1807903;77;21576;-84
2021/10/08 07:45:05;;;;;;;14.65;5.87;;;;;;;7.10;61.91;94432.41;1780538;77;21605;-85
2021/10/08 07:47:32;;;;;;;9.30;4.97;;;;;;;7.41;59.11;94433.00;1785358;76;21057;-87
2021/10/08 07:49:59;;;;;;;12.43;5.05;;;;;;;7.64;57.29;94437.78;1824037;76;21493;-86
2021/10/08 07:52:25;;;;;;;14.25;5.35;;;;;;;7.84;52.84;94429.92;1832021;76;21062;-86
2021/10/08 07:54:52;;;;;;;14.07;5.33;;;;;;;7.96;52.16;94431.15;1813754;77;21084;-87
2021/10/08 07:57:19;;;;;;;9.20;5.20;;;;;;;8.10;49.63;94427.20;1782452;78;21558;-86
2021/10/08 07:59:45;;;;;;;13.75;5.22;;;;;;;8.19;46.37;94430.47;1760703;79;21094;-87
2021/10/08 08:02:11;;;;;;;13.50;7.50;;;;;;;8.19;45.18;94435.89;1761485;79;21046;-88
2021/10/08 08:04:38;;;;;;;12.30;5.80;;;;;;;8.18;47.12;94430.27;1792292;77;20964;-88
2021/10/08 08:07:05;;;;;;;18.50;7.50;;;;;;;8.22;44.77;94437.33;1825690;76;21028;-88
2021/10/08 08:09:32;;;;;;;10.63;5.53;;;;;;;8.29;44.43;94433.98;1822932;76;21090;-87
2021/10/08 08:11:58;;;;;;;28.30;9.18;;;;;;;8.36;41.68;94436.06;1809879;76;21022;-89
2021/10/08 08:14:24;;;;;;;22.42;5.42;;;;;;;8.35;42.86;94433.12;1812950;77;21049;-86
2021/10/08 08:16:51;;;;;;;10.88;5.50;;;;;;;8.32;41.78;94440.62;1793217;78;21069;-89
2021/10/08 08:19:17;;;;;;;11.68;4.47;;;;;;;8.19;41.43;94446.16;1791156;78;21167;-87
2021/10/08 08:21:44;;;;;;;14.05;5.80;;;;;;;8.08;41.94;94440.30;1811191;77;21071;-86
2021/10/08 08:24:10;;;;;;;13.68;6.10;;;;;;;8.01;42.38;94434.95;1788607;79;21385;-85
2021/10/08 08:26:39;;;;;;;15.53;4.65;;;;;;;7.94;40.03;94433.44;1748757;80;21046;-84
2021/10/08 08:29:05;;;;;;;15.45;5.00;;;;;;;7.82;39.92;94440.30;1787435;77;21056;-88
2021/10/08 08:31:32;;;;;;;10.78;4.45;;;;;;;7.73;40.79;94436.44;1837664;77;21037;-87
2021/10/08 08:33:59;;;;;;;8.58;4.78;;;;;;;7.76;41.68;94434.96;1835386;77;21098;-91
2021/10/08 08:36:25;;;;;;;10.53;5.00;;;;;;;7.83;39.45;94446.53;1819760;76;21108;-88
2021/10/08 08:38:52;;;;;;;13.80;5.53;;;;;;;7.82;39.21;94444.94;1838208;76;21078;-88
2021/10/08 08:41:19;;;;;;;13.10;5.33;;;;;;;7.75;39.87;94445.01;1844955;75;21169;-86
2021/10/08 08:43:45;;;;;;;14.43;4.95;;;;;;;7.73;38.33;94448.62;1817832;77;21056;-88
2021/10/08 08:46:12;;;;;;;15.32;5.37;;;;;;;7.69;37.90;94453.17;1808670;77;21137;-87
2021/10/08 08:48:41;;;;;;;10.48;5.50;;;;;;;7.58;37.78;94450.00;1810080;77;21062;-86
2021/10/08 08:51:06;;;;;;;14.23;5.33;;;;;;;7.42;36.70;94446.73;1813573;77;21014;-88
2021/10/08 08:53:33;;;;;;;10.05;5.28;;;;;;;7.34;37.12;94458.52;1817633;77;21034;-86
2021/10/08 08:56:00;;;;;;;12.43;5.90;;;;;;;7.23;36.76;94447.44;1802259;77;21038;-89
2021/10/08 08:58:27;;;;;;;9.58;5.22;;;;;;;7.22;36.93;94460.75;1799715;77;21325;-86
2021/10/08 09:00:59;;;;;;;14.10;5.40;;;;;;;7.25;36.38;94443.02;1785731;78;21120;-87
2021/10/08 09:03:25;;;;;;;16.45;6.70;;;;;;;7.18;36.73;94445.54;1778373;78;21074;-88
2021/10/08 09:05:52;;;;;;;15.98;6.00;;;;;;;7.10;37.23;94440.52;1802181;77;21532;-86
2021/10/08 09:08:18;;;;;;;15.40;5.67;;;;;;;7.05;36.51;94442.92;1812193;76;21073;-85
2021/10/08 09:10:47;;;;;;;13.18;4.83;;;;;;;6.97;36.77;94440.39;1837548;75;21075;-88
2021/10/08 09:15:56;;;;;;;13.85;7.03;;;;;;;7.09;36.86;94436.81;1851117;75;20969;-88
2021/10/08 09:18:27;;;;;;;13.25;5.53;;;;;;;7.13;37.60;94439.83;1808200;77;20985;-86
2021/10/08 09:21:15;;;;;;;16.00;5.33;;;;;;;7.23;35.30;94454.77;1781387;78;21275;-85
2021/10/08 09:23:47;;;;;;;15.15;5.12;;;;;;;7.16;36.68;94429.67;1775049;78;22300;-85
2021/10/08 09:26:17;;;;;;;19.52;5.60;;;;;;;7.19;37.36;94428.20;1782826;78;21742;-84
2021/10/08 09:29:05;;;;;;;12.85;5.37;;;;;;;7.26;36.53;94416.98;1782571;78;21148;-84
2021/10/08 09:31:41;;;;;;;15.15;5.33;;;;;;;7.30;36.72;94430.59;1778763;78;20964;-87
2021/10/08 09:34:14;;;;;;;10.15;5.17;;;;;;;7.36;36.16;94425.70;1812517;76;21065;-85
2021/10/08 09:36:43;;;;;;;13.00;4.62;;;;;;;7.38;36.34;94428.28;1796235;77;21108;-86
2021/10/08 09:39:18;;;;;;;15.40;6.33;;;;;;;7.42;36.07;94422.95;1802696;78;21046;-89
2021/10/08 09:41:47;;;;;;;16.97;5.85;;;;;;;7.39;37.68;94417.66;1821619;77;21045;-87
2021/10/08 09:44:14;;;;;;;18.32;5.70;;;;;;;7.47;37.88;94416.69;1788719;77;21457;-87
2021/10/08 09:46:40;;;;;;;10.48;5.28;;;;;;;7.64;37.93;94413.42;1797999;77;21733;-86
2021/10/08 09:49:22;;;;;;;16.00;5.20;;;;;;;7.76;38.87;94410.59;1815852;77;21116;-84
2021/10/08 09:51:48;;;;;;;14.30;5.20;;;;;;;7.86;37.57;94403.28;1816227;77;21137;-86
2021/10/08 09:54:16;;;;;;;10.48;5.70;;;;;;;7.92;37.47;94403.20;1809416;77;21586;-85
2021/10/08 09:56:42;;;;;;;14.98;4.83;;;;;;;7.93;37.88;94402.06;1805861;77;21592;-86
2021/10/08 09:59:12;;;;;;;13.32;5.62;;;;;;;7.97;38.86;94398.89;1796457;77;21272;-86
2021/10/08 10:01:41;;;;;;;13.13;6.40;;;;;;;8.00;37.74;94394.66;1823926;77;21129;-87
2021/10/08 10:04:09;;;;;;;12.10;5.08;;;;;;;7.92;38.71;94401.07;1819338;76;21025;-85
2021/10/08 10:06:37;;;;;;;12.03;5.53;;;;;;;7.91;38.49;94384.05;1853283;75;21101;-85
2021/10/08 10:09:07;;;;;;;17.82;6.05;;;;;;;7.93;37.65;94385.03;1863497;75;21665;-86
2021/10/08 10:11:34;;;;;;;11.65;5.67;;;;;;;7.91;38.30;94384.61;1865463;75;21069;-85
2021/10/08 10:14:02;;;;;;;13.80;5.05;;;;;;;7.95;36.78;94385.47;1857878;75;21151;-86
2021/10/08 10:16:30;;;;;;;13.20;4.92;;;;;;;7.89;36.63;94385.53;1824216;77;21051;-87
2021/10/08 10:18:58;;;;;;;20.12;5.10;;;;;;;7.86;38.36;94377.56;1816818;77;20922;-84
2021/10/08 10:21:28;;;;;;;11.20;4.70;;;;;;;7.95;38.67;94385.47;1830519;76;21056;-86
2021/10/08 10:23:58;;;;;;;21.80;5.87;;;;;;;8.01;37.35;94387.56;1817304;74;21115;-84
2021/10/08 10:26:27;;;;;;;16.87;5.25;;;;;;;8.01;37.16;94378.08;1788395;77;21776;-87
2021/10/08 10:28:55;;;;;;;17.07;5.08;;;;;;;7.95;37.17;94384.12;1819447;75;21716;-87
2021/10/08 10:31:21;;;;;;;14.58;6.55;;;;;;;7.89;37.12;94393.08;1857507;75;21272;-84
2021/10/08 10:33:48;;;;;;;9.55;5.58;;;;;;;7.78;37.39;94379.88;1794399;75;21530;-86
2021/10/08 10:36:25;;;;;;;16.23;5.22;;;;;;;7.67;37.14;94378.85;1774596;78;21064;-84
2021/10/08 10:38:53;;;;;;;16.35;5.40;;;;;;;7.57;38.22;94380.77;1794357;78;21125;-87
2021/10/08 10:41:20;;;;;;;14.65;5.10;;;;;;;7.56;38.45;94381.34;1779000;78;22261;-85
2021/10/08 10:43:52;;;;;;;19.67;6.10;;;;;;;7.62;38.50;94386.69;1811358;76;21133;-86
2021/10/08 10:46:51;;;;;;;;;;;;;;;;;;;;;
2021/10/08 10:52:11;;;;;;;13.13;5.03;;;;;;;7.73;39.26;94389.63;1797274;77;21917;-84
2021/10/08 10:54:49;;;;;;;10.50;4.85;;;;;;;7.75;39.50;94376.55;1827035;77;21026;-86
2021/10/08 10:57:29;;;;;;;14.00;6.97;;;;;;;7.79;39.59;94363.86;1817433;77;21069;-86
2021/10/08 10:59:49;;;;;;;12.35;5.53;;;;;;;7.82;40.01;94368.55;1786787;77;21065;-86
2021/10/08 11:02:24;;;;;;;12.00;5.75;;;;;;;7.84;39.88;94378.47;1822111;75;21124;-84
2021/10/08 11:07:23;;;;;;;21.12;7.33;;;;;;;7.78;40.66;94373.91;1829319;76;21025;-81
2021/10/08 11:10:07;;;;;;;10.63;6.15;;;;;;;7.86;41.08;94380.27;1825087;76;21033;-84
2021/10/08 11:12:40;;;;;;;13.93;6.40;;;;;;;7.95;40.85;94379.48;1825176;76;21019;-85
2021/10/08 11:15:21;;;;;;;14.47;6.47;;;;;;;8.01;40.25;94379.97;1827333;76;21675;-85
2021/10/08 11:17:57;;;;;;;12.68;6.00;;;;;;;7.96;41.11;94376.20;1829809;76;22328;-84
2021/10/08 11:20:42;;;;;;;20.92;8.05;;;;;;;7.97;40.99;94381.83;1821215;76;21584;-86
2021/10/08 11:23:10;;;;;;;22.70;6.80;;;;;;;7.88;40.96;94380.69;1821151;77;21028;-86
2021/10/08 11:28:38;;;;;;;18.12;6.67;;;;;;;7.71;41.54;94371.05;1860109;75;21150;-84
2021/10/08 11:31:06;;;;;;;16.93;7.70;;;;;;;7.65;41.66;94379.79;1826061;75;21072;-85
2021/10/08 11:33:38;;;;;;;17.20;6.83;;;;;;;7.59;42.26;94387.38;1841751;76;21571;-83
2021/10/08 11:36:20;;;;;;;16.32;8.03;;;;;;;7.56;42.68;94371.88;1852734;75;21023;-83
2021/10/08 11:38:48;;;;;;;19.17;7.78;;;;;;;7.59;42.87;94375.20;1848781;75;21557;-86
2021/10/08 11:41:23;;;;;;;20.80;7.85;;;;;;;7.61;42.54;94391.89;1845188;76;21038;-84
2021/10/08 11:43:56;;;;;;;16.42;7.30;;;;;;;7.58;42.89;94387.17;1853837;75;21128;-84
2021/10/08 11:49:22;;;;;;;21.23;7.47;;;;;;;7.61;42.31;94384.34;1860128;75;21021;-83
2021/10/08 11:51:43;;;;;;;12.82;6.53;;;;;;;7.60;42.02;94373.28;1825834;77;21053;-83
2021/10/08 11:54:19;;;;;;;17.55;8.25;;;;;;;7.53;42.10;94390.94;1818676;76;21030;-82